createdAt,value
2023-03-17T00:00:14.144Z,100414.63
2023-03-17T00:00:37.707Z,100416.31
2023-03-17T00:00:59.536Z,100411.78
2023-03-17T00:01:21.740Z,100417.69
2023-03-17T00:01:44.577Z,100419.34
2023-03-17T00:02:07.271Z,100421.03
2023-03-17T00:02:31.169Z,100418.38
2023-03-17T00:02:52.911Z,100419.16
2023-03-17T00:03:20.425Z,100418.25
2023-03-17T00:03:45.481Z,100415.38
2023-03-17T00:04:10.904Z,100413.66
2023-03-17T00:04:33.401Z,100413.44
2023-03-17T00:04:54.997Z,100409.13
2023-03-17T00:05:21.024Z,100415.88
2023-03-17T00:05:42.662Z,100413.06
2023-03-17T00:06:07.476Z,100396.72
2023-03-17T00:06:31.265Z,100423.78
2023-03-17T00:06:54.642Z,100406.47
2023-03-17T00:07:17.298Z,100415.88
2023-03-17T00:07:38.925Z,100412.19
2023-03-17T00:08:07.132Z,100412.13
2023-03-17T00:08:32.441Z,100410.56
2023-03-17T00:08:54.370Z,100414.66
2023-03-17T00:09:17.900Z,100416.72
2023-03-17T00:09:39.489Z,100416.06
2023-03-17T00:10:01.805Z,100408.19
2023-03-17T00:10:27.440Z,100414.03
2023-03-17T00:10:49.549Z,100418.31
2023-03-17T00:11:13.663Z,100410.34
2023-03-17T00:11:35.364Z,100414.44
2023-03-17T00:11:56.989Z,100428.78
2023-03-17T00:12:20.879Z,100424.31
2023-03-17T00:12:44.678Z,100418.31
2023-03-17T00:13:06.352Z,100408.34
2023-03-17T00:13:30.430Z,100417.78
2023-03-17T00:13:52.898Z,100412.19
2023-03-17T00:14:15.096Z,100406.16
2023-03-17T00:14:37.101Z,100412.19
2023-03-17T00:14:58.699Z,100416.41
2023-03-17T00:15:22.118Z,100413.50
2023-03-17T00:15:44.832Z,100416.00
2023-03-17T00:16:12.993Z,100417.59
2023-03-17T00:16:38.985Z,100416.97
2023-03-17T00:17:01.702Z,100411.41
2023-03-17T00:17:23.386Z,100413.25
2023-03-17T00:17:47.453Z,100409.53
2023-03-17T00:18:13.710Z,100404.03
2023-03-17T00:18:36.607Z,100412.91
2023-03-17T00:18:58.367Z,100401.19
2023-03-17T00:19:26.382Z,100410.66
2023-03-17T00:19:48.294Z,100408.00
2023-03-17T00:20:16.387Z,100410.72
2023-03-17T00:20:39.007Z,100407.09
2023-03-17T00:21:00.692Z,100409.94
2023-03-17T00:21:27.144Z,100399.22
2023-03-17T00:21:49.860Z,100404.53
2023-03-17T00:22:18.790Z,100389.88
2023-03-17T00:22:40.839Z,100394.81
2023-03-17T00:23:04.584Z,100396.00
2023-03-17T00:23:26.320Z,100402.06
2023-03-17T00:23:51.593Z,100401.81
2023-03-17T00:24:15.041Z,100407.38
2023-03-17T00:24:37.390Z,100409.06
2023-03-17T00:24:58.986Z,100396.63
2023-03-17T00:25:24.055Z,100397.78
2023-03-17T00:25:47.126Z,100385.59
2023-03-17T00:26:09.953Z,100397.47
2023-03-17T00:26:33.358Z,100400.13
2023-03-17T00:26:55.216Z,100397.38
2023-03-17T00:27:17.901Z,100403.78
2023-03-17T00:27:39.743Z,100395.56
2023-03-17T00:28:03.474Z,100404.78
2023-03-17T00:28:26.572Z,100399.41
2023-03-17T00:28:53.009Z,100402.84
2023-03-17T00:29:16.209Z,100407.25
2023-03-17T00:29:39.975Z,100408.75
2023-03-17T00:30:01.967Z,100406.63
2023-03-17T00:30:25.321Z,100404.03
2023-03-17T00:30:47.818Z,100413.06
2023-03-17T00:31:14.488Z,100410.25
2023-03-17T00:31:37.986Z,100415.56
2023-03-17T00:32:00.753Z,100409.63
2023-03-17T00:32:22.517Z,100407.84
2023-03-17T00:32:50.682Z,100409.13
2023-03-17T00:33:13.418Z,100411.66
2023-03-17T00:33:37.164Z,100410.97
2023-03-17T00:33:59.166Z,100410.91
2023-03-17T00:34:21.365Z,100413.44
2023-03-17T00:34:45.807Z,100425.63
2023-03-17T00:35:15.947Z,100419.41
2023-03-17T00:35:40.225Z,100414.19
2023-03-17T00:36:02.016Z,100420.44
2023-03-17T00:36:29.406Z,100423.28
2023-03-17T00:36:51.972Z,100424.13
2023-03-17T00:37:13.710Z,100420.25
2023-03-17T00:37:35.376Z,100430.63
2023-03-17T00:37:59.482Z,100418.31
2023-03-17T00:38:22.148Z,100431.63
2023-03-17T00:38:44.504Z,100415.00
2023-03-17T00:39:35.397Z,100437.66
2023-03-17T00:39:57.258Z,100435.81
2023-03-17T00:40:23.260Z,100437.44
2023-03-17T00:41:07.179Z,100441.16
2023-03-17T00:41:29.341Z,100443.13
2023-03-17T00:41:52.574Z,100442.97
2023-03-17T00:42:14.213Z,100444.63
2023-03-17T00:42:35.768Z,100449.16
2023-03-17T00:42:59.901Z,100454.63
2023-03-17T00:43:21.639Z,100449.22
2023-03-17T00:43:43.572Z,100449.13
2023-03-17T00:44:06.528Z,100442.56
2023-03-17T00:44:29.430Z,100451.28
2023-03-17T00:44:53.211Z,100462.63
2023-03-17T00:45:16.626Z,100452.69
2023-03-17T00:45:40.359Z,100451.09
2023-03-17T00:46:03.132Z,100453.47
2023-03-17T00:46:28.360Z,100448.13
2023-03-17T00:46:56.055Z,100455.28
2023-03-17T00:47:18.397Z,100467.59
2023-03-17T00:47:40.516Z,100455.22
2023-03-17T00:48:04.792Z,100442.13
2023-03-17T00:48:28.816Z,100462.28
2023-03-17T00:48:50.748Z,100458.56
2023-03-17T00:49:39.100Z,100463.09
2023-03-17T00:50:04.909Z,100458.94
2023-03-17T00:50:29.173Z,100459.81
2023-03-17T00:50:52.153Z,100448.50
2023-03-17T00:51:15.497Z,100455.44
2023-03-17T00:51:37.537Z,100463.34
2023-03-17T00:52:00.160Z,100442.56
2023-03-17T00:52:21.843Z,100457.09
2023-03-17T00:52:45.622Z,100461.78
2023-03-17T00:53:12.554Z,100447.63
2023-03-17T00:53:36.032Z,100459.97
2023-03-17T00:53:57.872Z,100460.69
2023-03-17T00:54:23.244Z,100461.59
2023-03-17T00:54:46.186Z,100456.47
2023-03-17T00:55:09.065Z,100457.41
2023-03-17T00:55:31.016Z,100454.13
2023-03-17T00:55:54.146Z,100452.94
2023-03-17T00:56:18.360Z,100456.56
2023-03-17T00:56:42.628Z,100459.75
2023-03-17T00:57:04.982Z,100459.75
2023-03-17T00:57:29.096Z,100461.47
2023-03-17T00:57:50.934Z,100469.53
2023-03-17T00:58:14.995Z,100445.28
2023-03-17T00:58:38.281Z,100463.34
2023-03-17T00:59:00.968Z,100456.31
2023-03-17T00:59:27.693Z,100450.28
2023-03-17T00:59:49.652Z,100448.50
2023-03-17T01:00:21.345Z,100457.19
2023-03-17T01:00:45.782Z,100456.28
2023-03-17T01:01:08.667Z,100445.09
2023-03-17T01:01:30.700Z,100446.69
2023-03-17T01:01:56.598Z,100441.38
2023-03-17T01:02:18.520Z,100438.78
2023-03-17T01:02:40.408Z,100434.47
2023-03-17T01:03:04.354Z,100439.50
2023-03-17T01:03:27.848Z,100444.59
2023-03-17T01:03:50.400Z,100447.44
2023-03-17T01:04:12.415Z,100444.63
2023-03-17T01:04:34.055Z,100448.63
2023-03-17T01:05:05.677Z,100444.22
2023-03-17T01:05:29.266Z,100445.38
2023-03-17T01:05:52.729Z,100454.13
2023-03-17T01:06:18.906Z,100449.59
2023-03-17T01:06:41.854Z,100446.84
2023-03-17T01:07:03.667Z,100443.22
2023-03-17T01:07:26.715Z,100444.13
2023-03-17T01:07:53.599Z,100447.31
2023-03-17T01:08:16.797Z,100443.59
2023-03-17T01:08:40.558Z,100451.66
2023-03-17T01:09:04.955Z,100448.31
2023-03-17T01:09:29.106Z,100450.19
2023-03-17T01:09:52.719Z,100452.56
2023-03-17T01:10:17.167Z,100447.94
2023-03-17T01:10:39.452Z,100441.56
2023-03-17T01:11:02.061Z,100424.31
2023-03-17T01:12:17.565Z,100443.81
2023-03-17T01:12:43.972Z,100450.09
2023-03-17T01:13:11.049Z,100453.38
2023-03-17T01:13:38.093Z,100453.25
2023-03-17T01:14:02.029Z,100447.84
2023-03-17T01:14:27.374Z,100452.28
2023-03-17T01:14:54.335Z,100449.53
2023-03-17T01:16:00.190Z,100458.19
2023-03-17T01:16:28.816Z,100447.56
2023-03-17T01:16:53.235Z,100442.38
2023-03-17T01:17:24.987Z,100447.69
2023-03-17T01:17:57.247Z,100424.94
2023-03-17T01:18:31.083Z,100454.13
2023-03-17T01:18:58.778Z,100439.28
2023-03-17T01:19:31.454Z,100446.94
2023-03-17T01:19:53.842Z,100449.50
2023-03-17T01:20:22.656Z,100451.88
2023-03-17T01:20:48.160Z,100445.69
2023-03-17T01:21:12.710Z,100434.19
2023-03-17T01:21:36.306Z,100455.13
2023-03-17T01:22:05.667Z,100447.94
2023-03-17T01:22:28.339Z,100448.84
2023-03-17T01:22:54.717Z,100439.97
2023-03-17T01:23:23.535Z,100419.09
2023-03-17T01:23:55.727Z,100438.13
2023-03-17T01:24:20.220Z,100437.06
2023-03-17T01:24:42.794Z,100438.84
2023-03-17T01:25:05.896Z,100434.63
2023-03-17T01:25:36.085Z,100429.03
2023-03-17T01:26:03.793Z,100428.25
2023-03-17T01:26:26.194Z,100425.00
2023-03-17T01:26:48.515Z,100429.53
2023-03-17T01:27:14.727Z,100429.53
2023-03-17T01:27:38.308Z,100425.63
2023-03-17T01:28:02.642Z,100430.75
2023-03-17T01:28:25.993Z,100435.16
2023-03-17T01:28:52.305Z,100434.34
2023-03-17T01:29:17.483Z,100435.06
2023-03-17T01:29:41.198Z,100437.06
2023-03-17T01:30:10.142Z,100436.78
2023-03-17T01:30:42.240Z,100443.84
2023-03-17T01:31:05.175Z,100437.53
2023-03-17T01:31:28.778Z,100423.28
2023-03-17T01:31:56.425Z,100435.28
2023-03-17T01:32:23.613Z,100428.16
2023-03-17T01:32:46.680Z,100430.56
2023-03-17T01:33:09.960Z,100422.63
2023-03-17T01:33:33.582Z,100432.31
2023-03-17T01:33:56.244Z,100428.88
2023-03-17T01:34:17.925Z,100428.78
2023-03-17T01:34:39.734Z,100418.13
2023-03-17T01:35:01.617Z,100426.91
2023-03-17T01:35:24.430Z,100427.75
2023-03-17T01:35:47.211Z,100425.06
2023-03-17T01:36:10.746Z,100408.72
2023-03-17T01:36:32.728Z,100425.09
2023-03-17T01:36:54.803Z,100422.53
2023-03-17T01:37:17.977Z,100424.31
2023-03-17T01:37:39.873Z,100421.59
2023-03-17T01:38:02.404Z,100425.06
2023-03-17T01:38:24.537Z,100428.53
2023-03-17T01:38:48.152Z,100424.94
2023-03-17T01:39:10.934Z,100421.34
2023-03-17T01:39:33.677Z,100416.91
2023-03-17T01:39:55.849Z,100412.44
2023-03-17T01:40:22.093Z,100420.44
2023-03-17T01:40:46.941Z,100415.88
2023-03-17T01:41:08.624Z,100405.19
2023-03-17T01:41:33.456Z,100412.88
2023-03-17T01:42:01.190Z,100399.19
2023-03-17T01:42:25.350Z,100409.53
2023-03-17T01:42:49.966Z,100408.81
2023-03-17T01:43:20.297Z,100396.53
2023-03-17T01:43:43.926Z,100401.66
2023-03-17T01:44:07.145Z,100377.69
2023-03-17T01:44:29.612Z,100399.06
2023-03-17T01:45:00.621Z,100395.56
2023-03-17T01:46:00.374Z,100392.88
2023-03-17T01:46:25.776Z,100384.84
2023-03-17T01:46:47.551Z,100387.88
2023-03-17T01:47:10.452Z,100380.50
2023-03-17T01:47:32.134Z,100377.78
2023-03-17T01:47:55.139Z,100377.78
2023-03-17T01:48:17.852Z,100383.97
2023-03-17T01:48:44.598Z,100367.38
2023-03-17T01:49:14.391Z,100363.00
2023-03-17T01:49:38.680Z,100370.13
2023-03-17T01:50:06.159Z,100370.47
2023-03-17T01:50:28.254Z,100370.38
2023-03-17T01:50:50.718Z,100372.34
2023-03-17T01:51:19.171Z,100373.44
2023-03-17T01:51:49.130Z,100367.03
2023-03-17T01:52:14.412Z,100367.75
2023-03-17T01:52:40.618Z,100379.22
2023-03-17T01:53:03.335Z,100374.88
2023-03-17T01:53:25.654Z,100372.38
2023-03-17T01:53:49.226Z,100344.81
2023-03-17T01:54:14.560Z,100368.94
2023-03-17T01:54:42.572Z,100371.34
2023-03-17T01:55:07.947Z,100371.59
2023-03-17T01:55:30.311Z,100372.44
2023-03-17T01:55:52.858Z,100378.53
2023-03-17T01:56:16.882Z,100368.69
2023-03-17T01:56:42.259Z,100371.28
2023-03-17T01:57:10.484Z,100376.41
2023-03-17T01:57:37.098Z,100376.59
2023-03-17T01:57:59.666Z,100379.06
2023-03-17T01:58:23.043Z,100374.94
2023-03-17T01:58:47.061Z,100372.94
2023-03-17T01:59:13.855Z,100369.41
2023-03-17T01:59:43.562Z,100364.50
2023-03-17T02:00:09.177Z,100378.06
2023-03-17T02:00:36.650Z,100386.03
2023-03-17T02:00:58.451Z,100373.50
2023-03-17T02:01:25.135Z,100383.44
2023-03-17T02:01:50.320Z,100379.13
2023-03-17T02:02:17.841Z,100388.75
2023-03-17T02:02:42.721Z,100390.34
2023-03-17T02:03:05.971Z,100380.59
2023-03-17T02:03:29.783Z,100382.06
2023-03-17T02:03:55.108Z,100376.91
2023-03-17T02:04:18.469Z,100375.69
2023-03-17T02:04:41.213Z,100373.94
2023-03-17T02:05:05.434Z,100381.72
2023-03-17T02:05:29.734Z,100372.78
2023-03-17T02:05:52.538Z,100373.03
2023-03-17T02:06:15.194Z,100369.63
2023-03-17T02:06:40.197Z,100375.97
2023-03-17T02:07:10.067Z,100369.72
2023-03-17T02:07:36.611Z,100374.59
2023-03-17T02:07:59.646Z,100370.03
2023-03-17T02:08:23.952Z,100369.88
2023-03-17T02:08:46.378Z,100373.22
2023-03-17T02:09:10.206Z,100367.81
2023-03-17T02:09:34.720Z,100346.31
2023-03-17T02:09:58.027Z,100370.31
2023-03-17T02:10:22.310Z,100371.16
2023-03-17T02:10:45.939Z,100371.66
2023-03-17T02:11:10.593Z,100333.22
2023-03-17T02:11:39.564Z,100370.41
2023-03-17T02:12:02.841Z,100363.91
2023-03-17T02:12:28.969Z,100363.63
2023-03-17T02:12:55.100Z,100356.44
2023-03-17T02:13:16.897Z,100360.44
2023-03-17T02:13:38.935Z,100363.78
2023-03-17T02:14:00.742Z,100362.69
2023-03-17T02:14:24.301Z,100361.72
2023-03-17T02:14:46.646Z,100357.28
2023-03-17T02:15:10.068Z,100358.88
2023-03-17T02:15:40.248Z,100349.28
2023-03-17T02:16:02.185Z,100354.59
2023-03-17T02:16:24.019Z,100355.41
2023-03-17T02:16:45.786Z,100346.75
2023-03-17T02:17:09.045Z,100351.94
2023-03-17T02:17:30.909Z,100348.38
2023-03-17T02:17:55.080Z,100345.59
2023-03-17T02:18:18.880Z,100342.88
2023-03-17T02:18:40.513Z,100347.13
2023-03-17T02:19:03.559Z,100346.25
2023-03-17T02:19:25.823Z,100333.94
2023-03-17T02:19:48.619Z,100346.31
2023-03-17T02:20:46.686Z,100335.81
2023-03-17T02:21:31.416Z,100339.44
2023-03-17T02:21:55.059Z,100342.94
2023-03-17T02:22:17.693Z,100345.44
2023-03-17T02:22:39.831Z,100346.69
2023-03-17T02:23:02.427Z,100320.69
2023-03-17T02:23:24.687Z,100345.09
2023-03-17T02:23:47.382Z,100344.03
2023-03-17T02:24:15.866Z,100320.59
2023-03-17T02:24:47.698Z,100342.44
2023-03-17T02:25:12.335Z,100343.47
2023-03-17T02:25:37.371Z,100332.28
2023-03-17T02:26:04.637Z,100339.19
2023-03-17T02:26:28.595Z,100336.22
2023-03-17T02:26:57.813Z,100334.81
2023-03-17T02:27:24.263Z,100337.16
2023-03-17T02:27:54.030Z,100325.94
2023-03-17T02:28:19.001Z,100330.03
2023-03-17T02:28:46.283Z,100335.66
2023-03-17T02:29:11.044Z,100330.34
2023-03-17T02:29:37.905Z,100333.00
2023-03-17T02:30:01.052Z,100336.47
2023-03-17T02:30:29.496Z,100336.16
2023-03-17T02:30:52.273Z,100336.91
2023-03-17T02:31:17.211Z,100334.81
2023-03-17T02:31:39.575Z,100336.78
2023-03-17T02:32:05.377Z,100324.63
2023-03-17T02:32:28.265Z,100329.56
2023-03-17T02:32:54.265Z,100335.09
2023-03-17T02:33:17.878Z,100334.19
2023-03-17T02:33:40.688Z,100341.25
2023-03-17T02:34:03.672Z,100330.66
2023-03-17T02:34:28.424Z,100328.50
2023-03-17T02:34:53.261Z,100331.91
2023-03-17T02:35:20.008Z,100325.91
2023-03-17T02:35:43.110Z,100324.69
2023-03-17T02:36:06.380Z,100329.50
2023-03-17T02:36:31.043Z,100323.19
2023-03-17T02:36:54.827Z,100323.09
2023-03-17T02:37:19.216Z,100330.91
2023-03-17T02:38:20.970Z,100320.31
2023-03-17T02:38:47.218Z,100335.13
2023-03-17T02:39:11.047Z,100329.00
2023-03-17T02:39:39.348Z,100325.78
2023-03-17T02:40:02.868Z,100331.75
2023-03-17T02:40:25.719Z,100334.22
2023-03-17T02:40:47.354Z,100325.44
2023-03-17T02:41:14.551Z,100334.97
2023-03-17T02:41:38.882Z,100333.13
2023-03-17T02:42:01.555Z,100331.34
2023-03-17T02:42:31.542Z,100326.75
2023-03-17T02:42:54.890Z,100338.25
2023-03-17T02:43:55.757Z,100336.38
2023-03-17T02:44:18.735Z,100335.47
2023-03-17T02:44:43.891Z,100333.72
2023-03-17T02:45:09.185Z,100331.72
2023-03-17T02:45:31.124Z,100319.75
2023-03-17T02:45:53.042Z,100347.59
2023-03-17T02:46:16.563Z,100355.50
2023-03-17T02:46:38.232Z,100345.91
2023-03-17T02:47:01.979Z,100347.47
2023-03-17T02:47:23.683Z,100348.34
2023-03-17T02:47:46.954Z,100355.38
2023-03-17T02:48:09.110Z,100356.59
2023-03-17T02:48:31.053Z,100350.72
2023-03-17T02:48:53.123Z,100348.75
2023-03-17T02:49:17.057Z,100344.53
2023-03-17T02:49:40.405Z,100348.97
2023-03-17T02:50:02.522Z,100346.09
2023-03-17T02:50:27.823Z,100351.06
2023-03-17T02:50:49.684Z,100356.19
2023-03-17T02:51:12.239Z,100349.09
2023-03-17T02:51:35.483Z,100349.97
2023-03-17T02:51:57.191Z,100350.88
2023-03-17T02:52:19.806Z,100342.09
2023-03-17T02:52:41.855Z,100346.66
2023-03-17T02:53:03.527Z,100351.13
2023-03-17T02:53:25.175Z,100349.47
2023-03-17T02:53:46.782Z,100345.88
2023-03-17T02:54:11.734Z,100338.84
2023-03-17T02:54:33.357Z,100340.06
2023-03-17T02:54:55.202Z,100340.81
2023-03-17T02:55:18.969Z,100341.38
2023-03-17T02:55:42.034Z,100349.94
2023-03-17T02:56:03.978Z,100344.47
2023-03-17T02:56:25.611Z,100348.06
2023-03-17T02:56:47.341Z,100346.31
2023-03-17T02:57:10.273Z,100342.09
2023-03-17T02:57:32.089Z,100342.00
2023-03-17T02:57:53.743Z,100335.81
2023-03-17T02:58:15.563Z,100337.44
2023-03-17T02:58:37.236Z,100348.56
2023-03-17T02:58:59.995Z,100350.19
2023-03-17T02:59:22.296Z,100345.00
2023-03-17T02:59:44.844Z,100329.94
2023-03-17T03:00:10.338Z,100344.59
2023-03-17T03:00:32.654Z,100348.16
2023-03-17T03:00:56.050Z,100336.84
2023-03-17T03:01:18.121Z,100342.09
2023-03-17T03:01:39.956Z,100347.47
2023-03-17T03:02:02.859Z,100341.19
2023-03-17T03:02:25.657Z,100331.66
2023-03-17T03:02:47.338Z,100333.38
2023-03-17T03:03:10.479Z,100338.69
2023-03-17T03:03:32.871Z,100334.19
2023-03-17T03:03:55.547Z,100333.13
2023-03-17T03:04:19.296Z,100323.50
2023-03-17T03:04:41.865Z,100338.44
2023-03-17T03:05:04.099Z,100337.66
2023-03-17T03:05:25.691Z,100338.88
2023-03-17T03:05:48.461Z,100334.50
2023-03-17T03:06:10.069Z,100337.56
2023-03-17T03:06:32.664Z,100340.22
2023-03-17T03:06:56.853Z,100336.66
2023-03-17T03:07:20.263Z,100328.78
2023-03-17T03:07:42.320Z,100334.81
2023-03-17T03:08:04.491Z,100332.16
2023-03-17T03:08:27.379Z,100336.69
2023-03-17T03:08:49.982Z,100337.56
2023-03-17T03:09:12.496Z,100327.00
2023-03-17T03:09:34.495Z,100339.31
2023-03-17T03:09:57.247Z,100334.13
2023-03-17T03:10:19.372Z,100335.00
2023-03-17T03:10:42.518Z,100332.47
2023-03-17T03:11:05.030Z,100318.69
2023-03-17T03:11:27.303Z,100336.00
2023-03-17T03:11:49.119Z,100326.53
2023-03-17T03:12:12.099Z,100332.84
2023-03-17T03:12:33.833Z,100327.53
2023-03-17T03:12:55.487Z,100338.75
2023-03-17T03:13:17.546Z,100337.28
2023-03-17T03:13:39.207Z,100334.44
2023-03-17T03:14:04.210Z,100328.44
2023-03-17T03:14:25.986Z,100340.56
2023-03-17T03:14:47.695Z,100344.84
2023-03-17T03:15:10.160Z,100348.19
2023-03-17T03:15:31.840Z,100341.00
2023-03-17T03:15:57.346Z,100340.22
2023-03-17T03:16:19.139Z,100343.84
2023-03-17T03:16:46.464Z,100346.44
2023-03-17T03:17:09.916Z,100342.97
2023-03-17T03:17:32.984Z,100342.09
2023-03-17T03:18:00.241Z,100352.41
2023-03-17T03:18:26.603Z,100352.31
2023-03-17T03:18:51.137Z,100349.56
2023-03-17T03:19:17.703Z,100343.47
2023-03-17T03:19:39.917Z,100331.78
2023-03-17T03:20:02.233Z,100355.25
2023-03-17T03:20:27.021Z,100345.41
2023-03-17T03:20:52.114Z,100354.94
2023-03-17T03:21:18.498Z,100347.69
2023-03-17T03:21:44.226Z,100351.19
2023-03-17T03:22:13.908Z,100350.19
2023-03-17T03:22:40.630Z,100351.03
2023-03-17T03:23:05.812Z,100347.59
2023-03-17T03:23:32.983Z,100339.00
2023-03-17T03:24:00.642Z,100333.69
2023-03-17T03:24:24.165Z,100344.06
2023-03-17T03:24:47.900Z,100349.31
2023-03-17T03:25:12.319Z,100350.00
2023-03-17T03:25:42.656Z,100341.00
2023-03-17T03:26:05.036Z,100348.03
2023-03-17T03:26:27.452Z,100343.53
2023-03-17T03:26:56.173Z,100340.38
2023-03-17T03:27:20.627Z,100344.69
2023-03-17T03:27:44.584Z,100333.97
2023-03-17T03:28:10.333Z,100337.59
2023-03-17T03:28:33.883Z,100333.94
2023-03-17T03:29:03.356Z,100334.66
2023-03-17T03:29:28.837Z,100338.00
2023-03-17T03:29:51.475Z,100338.59
2023-03-17T03:30:19.862Z,100340.44
2023-03-17T03:30:46.885Z,100344.25
2023-03-17T03:31:11.913Z,100322.31
2023-03-17T03:31:34.067Z,100337.78
2023-03-17T03:31:59.045Z,100339.41
2023-03-17T03:32:21.460Z,100335.59
2023-03-17T03:32:48.378Z,100337.38
2023-03-17T03:33:16.060Z,100340.91
2023-03-17T03:33:40.476Z,100337.47
2023-03-17T03:34:04.500Z,100335.81
2023-03-17T03:34:31.837Z,100319.44
2023-03-17T03:34:53.829Z,100333.44
2023-03-17T03:35:15.702Z,100335.00
2023-03-17T03:35:38.932Z,100332.16
2023-03-17T03:36:04.976Z,100340.91
2023-03-17T03:36:27.757Z,100335.69
2023-03-17T03:36:50.574Z,100340.78
2023-03-17T03:37:17.425Z,100331.22
2023-03-17T03:37:47.162Z,100331.06
2023-03-17T03:38:12.415Z,100340.66
2023-03-17T03:38:35.624Z,100329.78
2023-03-17T03:39:01.130Z,100332.63
2023-03-17T03:39:23.932Z,100330.56
2023-03-17T03:39:48.039Z,100324.50
2023-03-17T03:40:11.647Z,100330.50
2023-03-17T03:40:36.901Z,100325.59
2023-03-17T03:41:02.855Z,100328.91
2023-03-17T03:41:24.809Z,100325.06
2023-03-17T03:41:52.066Z,100322.25
2023-03-17T03:42:17.908Z,100326.75
2023-03-17T03:42:40.843Z,100317.88
2023-03-17T03:43:20.123Z,100327.44
2023-03-17T03:43:55.076Z,100323.00
2023-03-17T03:44:18.038Z,100309.13
2023-03-17T03:44:41.234Z,100321.28
2023-03-17T03:45:08.203Z,100320.75
2023-03-17T03:45:36.428Z,100310.59
2023-03-17T03:46:00.209Z,100315.56
2023-03-17T03:46:26.773Z,100312.97
2023-03-17T03:46:52.502Z,100322.97
2023-03-17T03:47:16.224Z,100321.34
2023-03-17T03:47:45.873Z,100318.81
2023-03-17T03:48:11.591Z,100291.03
2023-03-17T03:48:33.309Z,100315.28
2023-03-17T03:48:56.320Z,100319.56
2023-03-17T03:49:19.859Z,100324.75
2023-03-17T03:49:41.516Z,100314.34
2023-03-17T03:50:05.857Z,100313.47
2023-03-17T03:50:28.909Z,100319.13
2023-03-17T03:50:50.776Z,100309.63
2023-03-17T03:51:13.425Z,100317.13
2023-03-17T03:51:35.039Z,100318.69
2023-03-17T03:51:57.654Z,100324.75
2023-03-17T03:52:20.961Z,100337.09
2023-03-17T03:52:42.956Z,100305.88
2023-03-17T03:53:05.882Z,100319.59
2023-03-17T03:53:28.880Z,100317.81
2023-03-17T03:53:50.609Z,100321.91
2023-03-17T03:54:12.194Z,100317.53
2023-03-17T03:54:33.810Z,100317.34
2023-03-17T03:54:56.373Z,100323.47
2023-03-17T03:55:18.304Z,100320.81
2023-03-17T03:55:40.735Z,100317.53
2023-03-17T03:56:02.850Z,100331.22
2023-03-17T03:56:25.490Z,100328.63
2023-03-17T03:56:48.625Z,100323.34
2023-03-17T03:57:10.392Z,100332.19
2023-03-17T03:57:32.262Z,100340.09
2023-03-17T03:57:54.843Z,100337.16
2023-03-17T03:58:16.581Z,100340.72
2023-03-17T03:58:39.094Z,100335.00
2023-03-17T03:59:01.062Z,100340.03
2023-03-17T03:59:22.707Z,100338.56
2023-03-17T03:59:45.356Z,100344.00
2023-03-17T04:00:09.071Z,100333.03
2023-03-17T04:00:37.832Z,100337.69
2023-03-17T04:01:00.421Z,100343.63
2023-03-17T04:01:22.094Z,100343.34
2023-03-17T04:01:43.745Z,100347.44
2023-03-17T04:02:09.337Z,100328.25
2023-03-17T04:02:33.193Z,100333.97
2023-03-17T04:02:54.957Z,100341.22
2023-03-17T04:03:19.083Z,100348.34
2023-03-17T04:03:41.453Z,100342.97
2023-03-17T04:04:04.788Z,100342.88
2023-03-17T04:04:27.071Z,100344.56
2023-03-17T04:04:49.107Z,100343.72
2023-03-17T04:05:11.380Z,100344.69
2023-03-17T04:05:36.798Z,100339.47
2023-03-17T04:05:58.497Z,100315.22
2023-03-17T04:06:20.624Z,100337.53
2023-03-17T04:06:42.521Z,100335.78
2023-03-17T04:07:05.798Z,100347.94
2023-03-17T04:07:30.028Z,100352.25
2023-03-17T04:07:51.668Z,100344.25
2023-03-17T04:08:13.302Z,100316.53
2023-03-17T04:08:35.909Z,100350.19
2023-03-17T04:08:58.458Z,100350.06
2023-03-17T04:09:20.156Z,100338.72
2023-03-17T04:09:42.388Z,100343.16
2023-03-17T04:10:07.229Z,100347.72
2023-03-17T04:10:29.324Z,100345.09
2023-03-17T04:10:51.077Z,100345.84
2023-03-17T04:11:13.127Z,100335.34
2023-03-17T04:11:34.861Z,100341.94
2023-03-17T04:11:57.509Z,100337.28
2023-03-17T04:12:19.226Z,100342.16
2023-03-17T04:12:41.808Z,100341.59
2023-03-17T04:13:04.566Z,100343.44
2023-03-17T04:13:26.185Z,100355.44
2023-03-17T04:13:50.220Z,100339.41
2023-03-17T04:14:11.802Z,100337.41
2023-03-17T04:14:34.783Z,100339.97
2023-03-17T04:14:56.529Z,100334.75
2023-03-17T04:15:20.031Z,100336.44
2023-03-17T04:15:42.399Z,100343.69
2023-03-17T04:16:06.903Z,100338.38
2023-03-17T04:16:29.240Z,100340.19
2023-03-17T04:16:50.945Z,100336.63
2023-03-17T04:17:14.665Z,100302.06
2023-03-17T04:17:37.295Z,100334.31
2023-03-17T04:18:00.956Z,100341.31
2023-03-17T04:18:22.561Z,100335.00
2023-03-17T04:18:45.917Z,100331.44
2023-03-17T04:19:09.148Z,100335.66
2023-03-17T04:19:31.461Z,100327.91
2023-03-17T04:19:53.468Z,100331.44
2023-03-17T04:20:16.272Z,100332.75
2023-03-17T04:20:39.478Z,100320.34
2023-03-17T04:21:04.069Z,100332.00
2023-03-17T04:21:25.710Z,100329.19
2023-03-17T04:21:49.018Z,100338.66
2023-03-17T04:22:14.881Z,100323.56
2023-03-17T04:22:38.753Z,100321.78
2023-03-17T04:23:00.673Z,100336.56
2023-03-17T04:23:26.268Z,100320.78
2023-03-17T04:23:50.284Z,100326.84
2023-03-17T04:24:19.216Z,100328.63
2023-03-17T04:24:41.796Z,100328.28
2023-03-17T04:25:03.767Z,100325.53
2023-03-17T04:25:26.945Z,100328.09
2023-03-17T04:25:50.149Z,100333.41
2023-03-17T04:26:11.894Z,100329.00
2023-03-17T04:26:33.526Z,100338.44
2023-03-17T04:26:56.114Z,100341.19
2023-03-17T04:27:20.134Z,100343.44
2023-03-17T04:27:42.317Z,100332.56
2023-03-17T04:28:04.242Z,100342.41
2023-03-17T04:28:26.920Z,100340.53
2023-03-17T04:28:49.552Z,100346.84
2023-03-17T04:29:15.562Z,100328.81
2023-03-17T04:29:37.370Z,100343.59
2023-03-17T04:29:59.085Z,100334.53
2023-03-17T04:30:22.012Z,100340.66
2023-03-17T04:30:43.692Z,100333.63
2023-03-17T04:31:05.489Z,100332.00
2023-03-17T04:31:27.407Z,100338.19
2023-03-17T04:31:49.112Z,100336.75
2023-03-17T04:32:15.617Z,100336.50
2023-03-17T04:32:37.282Z,100332.06
2023-03-17T04:32:59.037Z,100333.66
2023-03-17T04:33:20.706Z,100337.47
2023-03-17T04:33:42.324Z,100340.19
2023-03-17T04:34:04.984Z,100334.09
2023-03-17T04:34:27.309Z,100337.53
2023-03-17T04:34:48.887Z,100334.78
2023-03-17T04:35:13.232Z,100335.75
2023-03-17T04:35:36.221Z,100343.66
2023-03-17T04:35:58.448Z,100342.28
2023-03-17T04:36:24.037Z,100334.81
2023-03-17T04:36:48.210Z,100341.84
2023-03-17T04:37:10.828Z,100347.78
2023-03-17T04:37:34.599Z,100340.81
2023-03-17T04:37:58.629Z,100339.25
2023-03-17T04:38:20.742Z,100335.06